Terminal Aerodrome Forecast
Issued by NWS

Home | Current Version | Previous Version | Text Only | Print | Product List | Glossary On
Versions: 1 2 3 4 5 6 7 8 9 10 11 12 13 14 15 16 17 18 19 20
000
FTUS43 KDVN 270200 AAA
TAFBRL
TAF AMD
KBRL 270201Z 2702/2724 30006KT P6SM SCT025 BKN050
     FM271200 35008KT P6SM SCT015 BKN025
     FM271900 04008KT P6SM BKN030=

USA.gov is the U.S. government's official web portal to all federal, state and local government web resources and services.